Overbrook, Oklahoma
Current Conditions -  °F | °C
As of 1:55 PM on Friday 19 Dec 2014 (Local Time) from K1F0 Reporting Station
Overcast Overcast  
Wind Chill: 42°   Ceiling: 800
Heat Index: 45°   Visibility: 7mi
Dew Point: 41°   Wind: 5mph
Humidity: 87%   Direction: 30°NNE
Pressure: 30.17"   Gusts: NA
Location:  34.07°N, 97.14°W
Report Text: K1F0 191955Z AUTO 03004KT 7SM OVC008 07/05 A3017 RMK AO2
Loading
Personal Weather Stations






























Interactive Weather Map New forecast layout! Learn more

10-Day Weather Forecast

Advertisements
Track Severe Weather on mobile